Time;durP1;ratioP1;P1;durP2;ratioP2;P2;SDS_P1;SDS_P2;PMS_P1;PMS_P2;Temp;Humidity;BMP_temperature;BMP_pressure;BME280_temperature;BME280_humidity;BME280_pressure;Samples;Min_cycle;Max_cycle;Signal;HPM_P1;HPM_P2
2023/10/26 00:00:56;;;;;;;;;;;;;;;20.65;28.58;96938.63;4979033;28;997;-79
2023/10/26 00:03:22;;;;;;;;;;;;;;;20.89;28.10;96923.97;5007741;28;933;-78
2023/10/26 00:05:47;;;;;;;;;;;;;;;20.72;28.65;96910.06;5018346;28;1434;-80
2023/10/26 00:08:14;;;;;;;;;;;;;;;20.57;28.68;96900.59;5017991;28;897;-79
2023/10/26 00:10:39;;;;;;;;;;;;;;;20.76;28.64;96899.41;5002092;28;1914;-79
2023/10/26 00:13:05;;;;;;;;;;;;;;;20.51;28.93;96882.66;5017888;28;878;-79
2023/10/26 00:15:31;;;;;;;;;;;;;;;20.90;27.99;96875.44;5018214;28;1048;-79
2023/10/26 00:17:56;;;;;;;;;;;;;;;20.67;28.54;96896.53;5000851;28;1177;-79
2023/10/26 00:20:22;;;;;;;;;;;;;;;20.63;28.42;96910.06;5038561;28;928;-79
2023/10/26 00:22:47;;;;;;;;;;;;;;;20.79;28.27;96904.16;5039173;28;829;-79
2023/10/26 00:25:13;;;;;;;;;;;;;;;20.68;28.44;96912.28;5038769;28;985;-79
2023/10/26 00:27:40;;;;;;;;;;;;;;;20.64;28.35;96924.97;5038750;28;876;-79
2023/10/26 00:30:09;;;;;;;;;;;;;;;20.38;28.62;96927.16;5039309;28;961;-79
2023/10/26 00:32:36;;;;;;;;;;;;;;;20.68;28.19;96934.88;4998016;28;1108;-79
2023/10/26 00:35:03;;;;;;;;;;;;;;;20.50;28.68;96948.91;4998197;28;1488;-79
2023/10/26 00:37:29;;;;;;;;;;;;;;;20.40;28.44;96950.09;5014901;28;783;-79
2023/10/26 00:39:55;;;;;;;;;;;;;;;20.48;28.30;96934.47;4998259;28;1075;-79
2023/10/26 00:42:20;;;;;;;;;;;;;;;20.52;28.15;96940.75;5014614;28;1028;-79
2023/10/26 00:44:46;;;;;;;;;;;;;;;20.74;28.24;96947.16;5021116;28;1229;-79
2023/10/26 00:47:12;;;;;;;;;;;;;;;21.18;27.26;96938.50;4985084;28;1072;-79
2023/10/26 00:49:40;;;;;;;;;;;;;;;21.36;27.31;96922.84;5001148;28;1201;-79
2023/10/26 00:52:06;;;;;;;;;;;;;;;21.21;27.39;96937.56;5014147;28;1914;-79
2023/10/26 00:54:32;;;;;;;;;;;;;;;21.20;27.33;96921.84;4997802;28;1153;-78
2023/10/26 00:56:57;;;;;;;;;;;;;;;20.91;27.70;96932.78;5014211;28;1032;-79
2023/10/26 00:59:23;;;;;;;;;;;;;;;20.68;27.96;96926.41;5013991;28;986;-79
2023/10/26 01:01:48;;;;;;;;;;;;;;;20.74;27.81;96929.41;4997567;28;960;-79
2023/10/26 01:04:16;;;;;;;;;;;;;;;20.90;27.85;96934.81;5013655;28;1338;-79
2023/10/26 01:06:41;;;;;;;;;;;;;;;20.66;27.83;96928.13;5018029;28;1211;-79
2023/10/26 01:09:08;;;;;;;;;;;;;;;20.67;28.08;96929.69;4974965;28;868;-79
2023/10/26 01:11:34;;;;;;;;;;;;;;;20.46;28.43;96942.59;4958985;28;1914;-79
2023/10/26 01:13:59;;;;;;;;;;;;;;;20.63;28.18;96941.16;4976718;28;921;-79
2023/10/26 01:16:25;;;;;;;;;;;;;;;20.42;28.39;96950.44;4978522;28;764;-79
2023/10/26 01:18:51;;;;;;;;;;;;;;;20.66;27.84;96957.16;4962174;28;974;-79
2023/10/26 01:21:16;;;;;;;;;;;;;;;20.48;27.90;96957.09;4978839;28;953;-79
2023/10/26 01:23:42;;;;;;;;;;;;;;;20.37;28.16;96967.97;5007941;28;912;-79
2023/10/26 01:26:07;;;;;;;;;;;;;;;20.55;28.16;96980.19;5001214;28;1287;-79
2023/10/26 01:28:33;;;;;;;;;;;;;;;20.60;27.99;96978.81;4962246;28;1236;-79
2023/10/26 01:30:58;;;;;;;;;;;;;;;20.95;27.41;96984.31;4978331;28;1985;-79
2023/10/26 01:33:25;;;;;;;;;;;;;;;20.50;27.71;96974.34;4946791;28;1188;-79
2023/10/26 01:35:51;;;;;;;;;;;;;;;20.58;27.89;96980.53;4962234;28;1120;-79
2023/10/26 01:38:16;;;;;;;;;;;;;;;20.66;27.44;96976.94;4946228;28;1054;-78
2023/10/26 01:40:42;;;;;;;;;;;;;;;20.67;27.42;96972.88;4939670;29;1303;-79
2023/10/26 01:43:07;;;;;;;;;;;;;;;20.61;27.52;96957.75;4923721;29;998;-79
2023/10/26 01:45:33;;;;;;;;;;;;;;;20.52;27.63;96955.69;4911793;28;1135;-79
2023/10/26 01:48:00;;;;;;;;;;;;;;;20.74;27.49;96958.47;4962309;28;1258;-79
2023/10/26 01:50:25;;;;;;;;;;;;;;;21.26;26.56;96962.41;4978171;28;1914;-79
2023/10/26 01:52:51;;;;;;;;;;;;;;;21.37;26.49;96959.16;4961462;28;1287;-78
2023/10/26 01:55:16;;;;;;;;;;;;;;;21.38;26.48;96966.41;4942183;29;1237;-79
2023/10/26 01:57:43;;;;;;;;;;;;;;;21.04;26.87;96971.00;4958366;29;1246;-79
2023/10/26 02:00:09;;;;;;;;;;;;;;;20.86;26.94;96976.56;4926484;29;1208;-80
2023/10/26 02:02:37;;;;;;;;;;;;;;;20.66;27.63;96985.44;4958465;29;938;-79
2023/10/26 02:05:03;;;;;;;;;;;;;;;20.56;27.33;96975.31;4958291;28;1202;-79
2023/10/26 02:07:29;;;;;;;;;;;;;;;20.75;27.40;96965.69;4958519;29;964;-79
2023/10/26 02:09:55;;;;;;;;;;;;;;;20.74;27.52;96983.91;4958319;28;1252;-79
2023/10/26 02:12:20;;;;;;;;;;;;;;;20.59;27.62;96985.72;4958807;28;2000;-79
2023/10/26 02:14:46;;;;;;;;;;;;;;;20.71;27.70;96973.50;4958164;28;1124;-79
2023/10/26 02:17:12;;;;;;;;;;;;;;;20.73;27.30;96968.22;4962819;28;1082;-79
2023/10/26 02:19:38;;;;;;;;;;;;;;;20.47;27.48;96967.59;4996827;28;1036;-80
2023/10/26 02:22:04;;;;;;;;;;;;;;;20.41;27.76;96968.59;4996872;28;1240;-79
2023/10/26 02:24:29;;;;;;;;;;;;;;;20.69;27.17;96976.03;5027655;28;1126;-79
2023/10/26 02:26:55;;;;;;;;;;;;;;;20.37;27.69;96970.81;5064621;28;1157;-79
2023/10/26 02:29:20;;;;;;;;;;;;;;;20.59;27.26;96980.06;5057384;28;1120;-79
2023/10/26 02:31:46;;;;;;;;;;;;;;;20.58;27.29;96981.31;5057023;28;1906;-79
2023/10/26 02:34:11;;;;;;;;;;;;;;;20.61;27.57;96988.84;5057466;28;907;-79
2023/10/26 02:36:37;;;;;;;;;;;;;;;20.37;27.61;96985.72;5057322;28;909;-79
2023/10/26 02:39:03;;;;;;;;;;;;;;;21.14;26.49;96974.66;5040208;28;1272;-79
2023/10/26 02:41:29;;;;;;;;;;;;;;;21.38;26.44;96974.88;5036195;28;1061;-79
2023/10/26 02:43:54;;;;;;;;;;;;;;;21.38;26.03;96976.94;5019307;28;1157;-79
2023/10/26 02:46:20;;;;;;;;;;;;;;;21.31;26.21;96975.19;5016010;28;1076;-79
2023/10/26 02:48:47;;;;;;;;;;;;;;;21.10;26.59;96990.19;5000069;28;982;-79
2023/10/26 02:51:12;;;;;;;;;;;;;;;20.74;27.05;96981.09;5016184;28;1910;-79
2023/10/26 02:53:38;;;;;;;;;;;;;;;20.78;27.03;96976.09;5016234;28;920;-79
2023/10/26 02:56:03;;;;;;;;;;;;;;;20.69;26.97;96978.84;5016216;28;1144;-79
2023/10/26 02:58:29;;;;;;;;;;;;;;;20.80;26.90;96981.25;4999511;28;1287;-79
2023/10/26 03:00:55;;;;;;;;;;;;;;;20.49;27.50;96981.25;5015893;28;937;-79
2023/10/26 03:03:21;;;;;;;;;;;;;;;20.74;27.13;96988.78;5015925;28;1170;-79
2023/10/26 03:05:46;;;;;;;;;;;;;;;20.47;27.82;96978.91;4999604;28;1083;-80
2023/10/26 03:08:11;;;;;;;;;;;;;;;20.54;27.21;96977.84;5015506;28;866;-79
2023/10/26 03:10:37;;;;;;;;;;;;;;;20.72;27.05;96972.25;5015504;28;1972;-79
2023/10/26 03:13:04;;;;;;;;;;;;;;;20.48;27.68;96960.69;5045627;28;1096;-79
2023/10/26 03:15:30;;;;;;;;;;;;;;;20.42;27.64;96964.56;5038634;28;775;-79
2023/10/26 03:17:56;;;;;;;;;;;;;;;20.27;27.63;96969.97;5034235;28;1172;-79
2023/10/26 03:20:21;;;;;;;;;;;;;;;20.33;27.65;96970.16;5057119;28;1211;-79
2023/10/26 03:22:47;;;;;;;;;;;;;;;20.67;27.09;96967.22;5055161;28;892;-79
2023/10/26 03:25:13;;;;;;;;;;;;;;;21.22;26.25;96970.25;5054880;28;1170;-79
2023/10/26 03:27:40;;;;;;;;;;;;;;;21.29;26.15;96969.16;5054897;28;938;-79
2023/10/26 03:30:07;;;;;;;;;;;;;;;21.42;26.01;96960.59;5038082;28;1258;-79
2023/10/26 03:32:32;;;;;;;;;;;;;;;20.68;27.00;96965.97;5038476;28;1977;-79
2023/10/26 03:34:58;;;;;;;;;;;;;;;20.83;26.96;96971.06;5055050;28;1106;-79
2023/10/26 03:37:23;;;;;;;;;;;;;;;20.70;27.16;96974.78;5037710;28;1237;-79
2023/10/26 03:39:49;;;;;;;;;;;;;;;20.90;27.14;96977.22;5037933;28;897;-79
2023/10/26 03:42:14;;;;;;;;;;;;;;;20.81;27.13;96963.81;5055140;28;1137;-79
2023/10/26 03:44:40;;;;;;;;;;;;;;;20.75;26.98;96960.03;5038088;28;1178;-79
2023/10/26 03:47:08;;;;;;;;;;;;;;;20.65;27.11;96966.91;5055225;28;1109;-79
2023/10/26 03:49:34;;;;;;;;;;;;;;;20.67;27.14;96967.22;5038111;28;946;-79
2023/10/26 03:51:59;;;;;;;;;;;;;;;20.80;26.84;96956.59;5038455;28;1909;-79
2023/10/26 03:54:25;;;;;;;;;;;;;;;20.62;27.12;96962.16;5038980;28;1189;-79
2023/10/26 03:56:51;;;;;;;;;;;;;;;20.75;26.94;96971.34;5056954;28;904;-79
2023/10/26 03:59:16;;;;;;;;;;;;;;;20.57;27.18;96967.63;5039510;28;1120;-78
2023/10/26 04:01:42;;;;;;;;;;;;;;;20.22;27.73;96979.81;5038296;28;1238;-79
2023/10/26 04:04:07;;;;;;;;;;;;;;;20.45;27.32;96975.72;5054319;28;1169;-79
2023/10/26 04:06:33;;;;;;;;;;;;;;;20.58;27.03;96981.31;5038335;28;880;-79
2023/10/26 04:08:58;;;;;;;;;;;;;;;20.56;27.15;96978.16;5037999;28;985;-80
2023/10/26 04:11:24;;;;;;;;;;;;;;;20.44;27.64;96979.00;5038296;28;1906;-79
2023/10/26 04:13:50;;;;;;;;;;;;;;;20.64;27.06;96979.47;5038419;28;971;-79
2023/10/26 04:16:17;;;;;;;;;;;;;;;20.19;27.49;96966.59;5037883;28;752;-79
2023/10/26 04:18:42;;;;;;;;;;;;;;;20.54;27.17;96966.53;5054851;28;932;-79
2023/10/26 04:21:08;;;;;;;;;;;;;;;20.94;26.70;96971.44;5021549;28;1250;-79
2023/10/26 04:23:34;;;;;;;;;;;;;;;21.09;26.24;96961.13;5037548;28;940;-79
2023/10/26 04:25:59;;;;;;;;;;;;;;;21.25;26.32;96968.56;5038282;28;1075;-79
2023/10/26 04:28:25;;;;;;;;;;;;;;;21.36;26.10;96973.78;5017941;28;963;-79
2023/10/26 04:30:50;;;;;;;;;;;;;;;20.92;26.85;96971.09;5017894;28;1902;-79
2023/10/26 04:33:16;;;;;;;;;;;;;;;21.00;26.43;96976.00;5017966;28;981;-79
2023/10/26 04:35:44;;;;;;;;;;;;;;;20.88;26.70;96976.09;5017973;28;949;-79
2023/10/26 04:38:10;;;;;;;;;;;;;;;20.54;27.33;96966.53;5017766;28;1034;-79
2023/10/26 04:40:38;;;;;;;;;;;;;;;20.48;27.49;96959.91;5034718;28;1011;-79
2023/10/26 04:43:03;;;;;;;;;;;;;;;20.69;27.22;96956.25;5034555;28;1015;-79
2023/10/26 04:45:29;;;;;;;;;;;;;;;20.80;26.79;96962.25;5034710;28;1186;-79
2023/10/26 04:47:54;;;;;;;;;;;;;;;20.79;26.98;96960.69;5034588;28;949;-79
2023/10/26 04:50:20;;;;;;;;;;;;;;;20.65;26.98;96966.91;5037851;28;978;-79
2023/10/26 04:52:47;;;;;;;;;;;;;;;20.72;26.87;96958.13;5038328;28;1983;-79
2023/10/26 04:55:13;;;;;;;;;;;;;;;20.52;27.21;96972.66;5038088;28;1358;-79
2023/10/26 04:57:39;;;;;;;;;;;;;;;20.68;26.83;96973.69;5018488;28;1135;-79
2023/10/26 05:00:08;;;;;;;;;;;;;;;20.45;27.37;96983.41;5017076;28;959;-79
2023/10/26 05:02:35;;;;;;;;;;;;;;;20.39;27.44;96988.06;5021752;28;963;-78
2023/10/26 05:05:00;;;;;;;;;;;;;;;21.09;26.62;96989.41;5021650;28;992;-80
2023/10/26 05:07:26;;;;;;;;;;;;;;;21.39;26.12;96993.44;5058137;28;907;-79
2023/10/26 05:09:51;;;;;;;;;;;;;;;21.55;25.90;97000.84;5057658;28;891;-78
2023/10/26 05:12:17;;;;;;;;;;;;;;;21.05;26.39;97005.72;5041120;28;1914;-79
2023/10/26 05:14:42;;;;;;;;;;;;;;;20.96;26.54;97019.81;5040800;28;903;-79
2023/10/26 05:17:08;;;;;;;;;;;;;;;20.79;26.89;97028.53;5057853;28;994;-79
2023/10/26 05:19:34;;;;;;;;;;;;;;;20.63;27.16;97031.59;5057724;28;1017;-78
2023/10/26 05:21:59;;;;;;;;;;;;;;;20.29;27.93;97029.59;5057542;28;988;-79
2023/10/26 05:24:25;;;;;;;;;;;;;;;20.48;27.31;97041.84;5057368;28;999;-79
2023/10/26 05:26:50;;;;;;;;;;;;;;;20.74;26.94;97036.84;5057374;28;1025;-79
2023/10/26 05:29:16;;;;;;;;;;;;;;;20.74;26.87;97023.47;5041027;28;1154;-79
2023/10/26 05:31:41;;;;;;;;;;;;;;;20.54;27.38;97029.50;5041139;28;1910;-79
2023/10/26 05:34:07;;;;;;;;;;;;;;;20.91;26.82;97024.03;5059672;28;1026;-79
2023/10/26 05:36:32;;;;;;;;;;;;;;;20.69;27.09;97021.25;5060701;28;961;-79
2023/10/26 05:38:58;;;;;;;;;;;;;;;20.40;27.44;97023.53;5056958;28;1156;-79
2023/10/26 05:41:23;;;;;;;;;;;;;;;20.46;27.33;97027.34;5057517;28;1161;-79
2023/10/26 05:43:49;;;;;;;;;;;;;;;20.64;27.32;97026.72;5055414;28;1062;-79
2023/10/26 05:46:14;;;;;;;;;;;;;;;20.55;27.05;97027.44;5037027;28;1463;-79
2023/10/26 05:48:40;;;;;;;;;;;;;;;20.59;27.01;97018.84;5004241;28;1127;-79
2023/10/26 05:51:05;;;;;;;;;;;;;;;20.73;26.88;97033.22;5020330;28;1989;-79
2023/10/26 05:53:31;;;;;;;;;;;;;;;20.76;27.08;97035.09;5000726;28;1359;-79
2023/10/26 05:55:57;;;;;;;;;;;;;;;20.58;27.05;97040.66;5017820;28;1043;-79
2023/10/26 05:58:23;;;;;;;;;;;;;;;20.67;27.07;97043.53;5000993;28;927;-79
2023/10/26 06:00:48;;;;;;;;;;;;;;;20.62;27.11;97038.47;5000381;28;1107;-79
2023/10/26 06:03:13;;;;;;;;;;;;;;;20.69;26.94;97031.78;5017286;28;1327;-79
2023/10/26 06:05:39;;;;;;;;;;;;;;;20.87;26.99;97029.03;5001270;28;846;-79
2023/10/26 06:08:05;;;;;;;;;;;;;;;20.64;27.30;97027.50;5016961;28;1063;-79
2023/10/26 06:10:30;;;;;;;;;;;;;;;20.65;27.00;97036.78;5031719;28;1934;-78
2023/10/26 06:12:56;;;;;;;;;;;;;;;20.88;26.87;97038.31;4981187;28;1228;-79
2023/10/26 06:15:21;;;;;;;;;;;;;;;21.39;26.30;97040.75;4964884;28;1207;-79
2023/10/26 06:17:47;;;;;;;;;;;;;;;21.41;26.10;97026.94;4997105;28;984;-79
2023/10/26 06:20:12;;;;;;;;;;;;;;;21.19;26.50;97041.13;4981081;28;941;-79
2023/10/26 06:22:38;;;;;;;;;;;;;;;21.10;26.74;97029.78;4964880;28;849;-79
2023/10/26 06:25:05;;;;;;;;;;;;;;;20.70;27.20;97036.97;4995237;28;1004;-79
2023/10/26 06:27:31;;;;;;;;;;;;;;;21.20;26.44;97029.34;5000278;28;1013;-79
2023/10/26 06:29:57;;;;;;;;;;;;;;;20.76;27.14;97029.44;5000585;28;1257;-79
2023/10/26 06:32:23;;;;;;;;;;;;;;;20.74;27.18;97037.63;5000314;28;1983;-79
2023/10/26 06:34:48;;;;;;;;;;;;;;;20.44;27.73;97029.84;5000199;28;896;-79
2023/10/26 06:37:14;;;;;;;;;;;;;;;20.54;27.60;97034.34;5000271;28;1095;-79
2023/10/26 06:39:39;;;;;;;;;;;;;;;20.61;27.38;97039.72;4999899;28;977;-79
2023/10/26 06:42:05;;;;;;;;;;;;;;;20.35;27.94;97038.25;5016340;28;856;-79
2023/10/26 06:44:30;;;;;;;;;;;;;;;20.58;27.69;97037.06;4999904;28;1082;-79
2023/10/26 06:46:56;;;;;;;;;;;;;;;20.38;27.87;97043.00;4996680;28;1043;-78
2023/10/26 06:49:21;;;;;;;;;;;;;;;20.47;27.70;97032.59;4998256;28;968;-79
2023/10/26 06:51:48;;;;;;;;;;;;;;;20.68;27.68;97022.50;4983634;28;1973;-79
2023/10/26 06:54:15;;;;;;;;;;;;;;;20.57;27.56;97024.16;5015974;28;934;-79
2023/10/26 06:56:41;;;;;;;;;;;;;;;20.39;27.75;97022.75;4999713;28;955;-79
2023/10/26 06:59:07;;;;;;;;;;;;;;;20.51;27.68;97023.97;4983946;28;1294;-79
2023/10/26 07:01:33;;;;;;;;;;;;;;;21.05;27.14;97036.84;4999432;28;1273;-79
2023/10/26 07:03:59;;;;;;;;;;;;;;;21.44;26.42;97037.31;4983519;28;1049;-79
2023/10/26 07:06:25;;;;;;;;;;;;;;;21.47;26.61;97047.72;4983561;28;1084;-79
2023/10/26 07:08:50;;;;;;;;;;;;;;;20.95;27.25;97055.00;4999819;28;883;-79
2023/10/26 07:11:16;;;;;;;;;;;;;;;20.99;27.13;97052.84;4998694;28;1970;-79
2023/10/26 07:13:41;;;;;;;;;;;;;;;20.78;27.68;97052.41;4983137;28;961;-79
2023/10/26 07:16:07;;;;;;;;;;;;;;;20.88;27.44;97052.44;4983388;28;1049;-79
2023/10/26 07:18:33;;;;;;;;;;;;;;;20.64;27.69;97041.66;5012792;28;924;-79
2023/10/26 07:20:58;;;;;;;;;;;;;;;20.64;27.83;97044.47;5039022;28;1178;-79
2023/10/26 07:23:24;;;;;;;;;;;;;;;20.67;27.65;97049.19;5038446;28;1209;-79
2023/10/26 07:25:49;;;;;;;;;;;;;;;20.43;28.04;97045.25;5055289;28;1008;-79
2023/10/26 07:28:15;;;;;;;;;;;;;;;20.75;27.83;97044.84;5038546;28;1151;-79
2023/10/26 07:30:41;;;;;;;;;;;;;;;20.57;27.66;97050.38;5038509;28;1893;-79
2023/10/26 07:33:06;;;;;;;;;;;;;;;20.87;27.35;97050.88;5044265;28;1045;-79
2023/10/26 07:35:38;;;;;;;;;;;;;;;20.81;27.45;97051.47;5035067;28;989;-79
2023/10/26 07:38:04;;;;;;;;;;;;;;;20.62;28.02;97052.59;5019974;28;934;-79
2023/10/26 07:40:30;;;;;;;;;;;;;;;20.64;27.83;97049.34;5018498;28;956;-79
2023/10/26 07:42:55;;;;;;;;;;;;;;;20.64;28.08;97043.69;5019081;28;902;-79
2023/10/26 07:45:21;;;;;;;;;;;;;;;20.70;27.91;97036.97;5018598;28;1119;-80
2023/10/26 07:47:46;;;;;;;;;;;;;;;20.55;27.77;97041.56;5018669;28;1001;-79
2023/10/26 07:50:11;;;;;;;;;;;;;;;20.63;27.83;97037.25;5018465;28;888;-79
2023/10/26 07:52:37;;;;;;;;;;;;;;;20.87;27.34;97036.72;5002190;28;1910;-79
2023/10/26 07:55:03;;;;;;;;;;;;;;;20.55;28.09;97052.88;5018437;28;1013;-79
2023/10/26 07:57:29;;;;;;;;;;;;;;;20.73;27.53;97047.34;5018408;28;1087;-79
2023/10/26 07:59:55;;;;;;;;;;;;;;;20.60;27.70;97043.81;5001928;28;1043;-79
2023/10/26 08:02:20;;;;;;;;;;;;;;;20.57;27.88;97043.94;5002339;28;1164;-79
2023/10/26 08:04:47;;;;;;;;;;;;;;;20.69;27.59;97041.03;5002217;28;1226;-79
2023/10/26 08:07:13;;;;;;;;;;;;;;;20.62;27.64;97044.13;5034661;28;901;-79
2023/10/26 08:09:38;;;;;;;;;;;;;;;20.52;28.04;97036.84;5038808;28;896;-79
2023/10/26 08:12:04;;;;;;;;;;;;;;;20.55;27.89;97035.94;5023108;28;1910;-78
2023/10/26 08:14:30;;;;;;;;;;;;;;;20.97;27.25;97041.97;5039378;28;882;-79
2023/10/26 08:16:56;;;;;;;;;;;;;;;21.33;26.88;97041.38;5039047;28;903;-79
2023/10/26 08:19:22;;;;;;;;;;;;;;;21.35;27.04;97040.09;5022592;28;806;-79
2023/10/26 08:21:48;;;;;;;;;;;;;;;21.19;26.97;97036.28;5039059;28;909;-79
2023/10/26 08:24:14;;;;;;;;;;;;;;;21.13;27.40;97037.31;5042716;28;1522;-79
2023/10/26 08:26:39;;;;;;;;;;;;;;;21.07;27.29;97042.81;5026950;28;1052;-79
2023/10/26 08:29:05;;;;;;;;;;;;;;;20.60;28.07;97049.47;5042717;28;1183;-79
2023/10/26 08:31:34;;;;;;;;;;;;;;;20.60;28.00;97054.31;5060831;28;1902;-79
2023/10/26 08:34:00;;;;;;;;;;;;;;;20.69;27.83;97041.03;5043010;28;956;-79
2023/10/26 08:36:25;;;;;;;;;;;;;;;20.66;27.90;97041.97;5026178;28;1117;-79
2023/10/26 08:38:51;;;;;;;;;;;;;;;20.63;27.94;97037.25;5026558;28;970;-79
2023/10/26 08:41:16;;;;;;;;;;;;;;;20.70;27.87;97036.97;5042687;28;1234;-79
2023/10/26 08:43:42;;;;;;;;;;;;;;;20.67;27.78;97029.41;5042247;28;879;-79
2023/10/26 08:46:07;;;;;;;;;;;;;;;20.77;27.90;97035.91;5026408;28;1223;-79
2023/10/26 08:48:34;;;;;;;;;;;;;;;20.88;27.44;97032.66;5042621;28;790;-79
2023/10/26 08:51:00;;;;;;;;;;;;;;;20.30;28.72;97043.25;5042679;28;1902;-79
2023/10/26 08:53:25;;;;;;;;;;;;;;;20.59;28.28;97036.59;5060756;28;1058;-79
2023/10/26 08:55:52;;;;;;;;;;;;;;;20.66;27.96;97046.81;5060117;28;1024;-79
2023/10/26 08:58:19;;;;;;;;;;;;;;;20.83;27.71;97047.38;5026234;28;976;-79
2023/10/26 09:00:45;;;;;;;;;;;;;;;20.64;27.86;97046.50;5042261;28;1422;-79
2023/10/26 09:03:10;;;;;;;;;;;;;;;20.65;28.04;97045.25;5026035;28;1120;-79
2023/10/26 09:05:55;;;;;;;;;;;;;;;20.72;27.82;97051.41;5026067;28;854;-79
2023/10/26 09:08:23;;;;;;;;;;;;;;;20.50;28.10;97033.69;5025301;28;1234;-79
2023/10/26 09:10:48;;;;;;;;;;;;;;;20.60;27.98;97026.84;5026349;28;1981;-79
2023/10/26 09:13:15;;;;;;;;;;;;;;;20.90;27.79;97024.50;5042357;28;855;-79
2023/10/26 09:15:50;;;;;;;;;;;;;;;20.38;28.57;97014.75;5039615;28;978;-79
2023/10/26 09:18:15;;;;;;;;;;;;;;;20.65;27.97;97023.44;5042425;28;870;-79
2023/10/26 09:20:43;;;;;;;;;;;;;;;21.05;27.34;97020.66;5026234;28;1167;-79
2023/10/26 09:23:28;;;;;;;;;;;;;;;20.98;27.41;97022.97;5041957;28;960;-79
2023/10/26 09:26:03;;;;;;;;;;;;;;;20.71;27.70;97015.91;5041293;28;1108;-79
2023/10/26 09:28:28;;;;;;;;;;;;;;;20.79;27.55;97017.22;5025362;28;1773;-79
2023/10/26 09:30:58;;;;;;;;;;;;;;;20.58;28.17;97018.06;5059655;28;1910;-79
2023/10/26 09:33:24;;;;;;;;;;;;;;;20.94;27.76;97022.34;5025391;28;883;-79
2023/10/26 09:35:49;;;;;;;;;;;;;;;20.39;28.27;97021.97;5041360;28;844;-79
2023/10/26 09:38:17;;;;;;;;;;;;;;;20.54;28.32;97014.56;5041786;28;919;-78
2023/10/26 09:40:42;;;;;;;;;;;;;;;20.41;28.21;97008.94;5042110;28;844;-79
2023/10/26 09:43:08;;;;;;;;;;;;;;;20.73;27.87;96990.81;5059356;28;986;-78
2023/10/26 09:45:33;;;;;;;;;;;;;;;20.62;28.13;97001.72;5041602;28;1076;-79
2023/10/26 09:48:00;;;;;;;;;;;;;;;20.79;27.96;97000.28;5025075;28;1211;-79
2023/10/26 09:50:25;;;;;;;;;;;;;;;20.71;27.77;96998.97;5024679;28;924;-79
2023/10/26 09:52:51;;;;;;;;;;;;;;;20.53;28.17;96993.22;5020338;28;1910;-79
2023/10/26 09:55:16;;;;;;;;;;;;;;;20.42;28.53;96981.50;5020227;28;1049;-79
2023/10/26 09:57:50;;;;;;;;;;;;;;;20.49;28.55;96978.44;5020761;28;901;-79
2023/10/26 10:00:17;;;;;;;;;;;;;;;21.08;27.41;96979.31;5020259;28;990;-79
2023/10/26 10:02:43;;;;;;;;;;;;;;;21.29;27.37;96981.28;5020302;28;1308;-78
2023/10/26 10:05:27;;;;;;;;;;;;;;;21.28;27.55;96968.38;5036792;28;949;-80
2023/10/26 10:07:52;;;;;;;;;;;;;;;20.93;27.69;96973.44;5036527;28;884;-79
2023/10/26 10:10:18;;;;;;;;;;;;;;;20.89;27.88;96978.47;5036590;28;1079;-79
2023/10/26 10:12:44;;;;;;;;;;;;;;;20.92;28.09;96982.41;5019863;28;1902;-79
2023/10/26 10:15:11;;;;;;;;;;;;;;;20.91;28.00;96978.78;5032242;28;1568;-79
2023/10/26 10:17:45;;;;;;;;;;;;;;;20.86;27.99;96972.97;5019569;28;795;-79
2023/10/26 10:20:20;;;;;;;;;;;;;;;20.80;28.13;96984.88;5035598;28;704;-79
2023/10/26 10:22:46;;;;;;;;;;;;;;;20.81;28.04;96986.44;5037331;28;915;-79
2023/10/26 10:25:12;;;;;;;;;;;;;;;20.69;28.18;96984.50;5023830;28;699;-79
2023/10/26 10:27:37;;;;;;;;;;;;;;;20.99;27.84;96979.31;5015925;28;1253;-79
2023/10/26 10:30:05;;;;;;;;;;;;;;;20.91;27.92;96967.47;4999221;28;924;-79
2023/10/26 10:32:42;;;;;;;;;;;;;;;20.88;27.82;96965.59;5015605;28;1981;-79
2023/10/26 10:35:08;;;;;;;;;;;;;;;20.86;28.10;96956.00;5015578;28;744;-79
2023/10/26 10:37:34;;;;;;;;;;;;;;;20.49;28.41;96953.00;4999555;28;835;-79
2023/10/26 10:40:12;;;;;;;;;;;;;;;20.61;28.20;96960.59;5015426;28;732;-79
2023/10/26 10:42:39;;;;;;;;;;;;;;;20.86;28.13;96958.81;4999590;28;962;-78
2023/10/26 10:45:11;;;;;;;;;;;;;;;20.89;27.83;96940.94;4998577;28;1198;-79
2023/10/26 10:47:37;;;;;;;;;;;;;;;20.46;28.41;96942.59;5015374;28;822;-79
2023/10/26 10:50:15;;;;;;;;;;;;;;;20.69;28.31;96927.97;4982963;28;1408;-79
2023/10/26 10:52:41;;;;;;;;;;;;;;;20.56;28.60;96930.09;4999206;28;1894;-77
2023/10/26 10:55:06;;;;;;;;;;;;;;;20.76;28.09;96922.03;4998772;28;724;-77
2023/10/26 10:57:32;;;;;;;;;;;;;;;21.01;27.65;96926.66;5000920;28;1109;-77
2023/10/26 10:59:57;;;;;;;;;;;;;;;20.77;28.01;96934.91;5056841;28;843;-77
2023/10/26 11:02:23;;;;;;;;;;;;;;;20.72;28.09;96929.06;5039388;28;708;-77
2023/10/26 11:04:55;;;;;;;;;;;;;;;20.87;27.82;96926.47;5056864;28;759;-77
2023/10/26 11:07:25;;;;;;;;;;;;;;;20.58;28.35;96927.63;5038933;28;748;-77
2023/10/26 11:09:54;;;;;;;;;;;;;;;20.71;28.09;96925.47;5006254;28;1403;-77
2023/10/26 11:12:20;;;;;;;;;;;;;;;20.62;28.43;96918.97;5039142;28;1910;-77
2023/10/26 11:14:49;;;;;;;;;;;;;;;20.84;27.98;96919.72;5056801;28;810;-77
2023/10/26 11:17:14;;;;;;;;;;;;;;;20.36;29.04;96910.66;5039261;28;712;-77
2023/10/26 11:19:40;;;;;;;;;;;;;;;20.68;28.13;96909.44;5039206;28;751;-77
2023/10/26 11:22:06;;;;;;;;;;;;;;;20.43;28.68;96899.09;5056762;28;715;-77
2023/10/26 11:24:31;;;;;;;;;;;;;;;20.48;28.65;96897.75;5039226;28;735;-78
2023/10/26 11:27:10;;;;;;;;;;;;;;;20.50;28.82;96890.38;5038603;28;893;-77
2023/10/26 11:29:36;;;;;;;;;;;;;;;20.52;28.57;96892.72;5056386;28;763;-78
2023/10/26 11:32:01;;;;;;;;;;;;;;;20.73;28.15;96893.94;5038794;28;1980;-77
2023/10/26 11:34:27;;;;;;;;;;;;;;;20.56;28.55;96890.53;5056936;28;830;-77
2023/10/26 11:36:53;;;;;;;;;;;;;;;20.67;28.26;96890.09;5056599;28;782;-77
2023/10/26 11:39:19;;;;;;;;;;;;;;;20.87;28.06;96893.31;5038564;28;791;-77
2023/10/26 11:41:54;;;;;;;;;;;;;;;20.71;28.25;96896.41;5022093;28;1258;-77
2023/10/26 11:44:26;;;;;;;;;;;;;;;20.53;28.49;96897.13;5038297;28;1097;-77
2023/10/26 11:46:58;;;;;;;;;;;;;;;20.77;28.08;96895.31;5038237;28;720;-78
2023/10/26 11:49:39;;;;;;;;;;;;;;;20.61;28.33;96898.41;5038407;28;803;-77
2023/10/26 11:52:05;;;;;;;;;;;;;;;20.39;28.77;96897.66;5038209;28;1971;-77
2023/10/26 11:54:30;;;;;;;;;;;;;;;20.76;28.38;96905.06;5055792;28;1003;-77
2023/10/26 11:56:56;;;;;;;;;;;;;;;20.79;28.23;96903.38;5017291;28;1250;-78
2023/10/26 11:59:21;;;;;;;;;;;;;;;20.79;28.30;96909.81;5033838;28;868;-77
2023/10/26 12:01:47;;;;;;;;;;;;;;;20.65;28.37;96899.06;5017295;28;744;-77
2023/10/26 12:04:12;;;;;;;;;;;;;;;20.87;27.90;96910.28;5017522;28;1106;-77
2023/10/26 12:06:38;;;;;;;;;;;;;;;20.45;28.58;96895.81;5034226;28;763;-77
2023/10/26 12:09:06;;;;;;;;;;;;;;;20.56;28.50;96896.19;5017195;28;803;-77
2023/10/26 12:11:32;;;;;;;;;;;;;;;20.61;28.60;96897.63;5018189;28;1906;-77
2023/10/26 12:13:57;;;;;;;;;;;;;;;20.83;28.02;96900.38;5017102;28;932;-78
2023/10/26 12:16:23;;;;;;;;;;;;;;;20.63;28.26;96893.09;5033971;28;710;-77
2023/10/26 12:18:48;;;;;;;;;;;;;;;20.70;28.19;96889.97;5001041;28;1485;-77
2023/10/26 12:21:15;;;;;;;;;;;;;;;20.46;28.49;96874.78;5017215;28;1709;-77
2023/10/26 12:23:40;;;;;;;;;;;;;;;20.57;28.51;96877.97;5000736;28;1388;-77
2023/10/26 12:26:06;;;;;;;;;;;;;;;20.55;28.62;96878.44;5033674;28;1422;-77
2023/10/26 12:28:31;;;;;;;;;;;;;;;20.72;28.11;96876.16;5033795;28;936;-77
2023/10/26 12:30:57;;;;;;;;;;;;;;;20.77;28.17;96872.72;5017272;28;1985;-78
2023/10/26 12:33:22;;;;;;;;;;;;;;;21.05;27.55;96869.97;5018948;28;767;-78
2023/10/26 12:35:48;;;;;;;;;;;;;;;20.85;27.89;96866.78;5055778;28;775;-77
2023/10/26 12:38:14;;;;;;;;;;;;;;;20.44;28.53;96872.41;5038195;28;1154;-77
2023/10/26 12:40:39;;;;;;;;;;;;;;;20.54;28.30;96870.44;5021386;28;839;-77
2023/10/26 12:43:05;;;;;;;;;;;;;;;20.63;28.41;96867.66;5037648;28;869;-77
2023/10/26 12:45:30;;;;;;;;;;;;;;;20.89;27.89;96873.88;5037840;28;1017;-78
2023/10/26 12:47:56;;;;;;;;;;;;;;;20.68;28.27;96869.09;5021461;28;887;-77
2023/10/26 12:50:21;;;;;;;;;;;;;;;20.71;28.06;96871.75;5055575;28;797;-77
2023/10/26 12:52:47;;;;;;;;;;;;;;;20.75;28.24;96875.22;5032968;28;1985;-77
2023/10/26 12:55:13;;;;;;;;;;;;;;;20.61;28.55;96880.66;5017116;28;883;-78
2023/10/26 12:57:38;;;;;;;;;;;;;;;20.76;28.13;96868.31;5016827;28;1276;-78